sensor_id;sensor_type;location;lat;lon;timestamp;P1;durP1;ratioP1;P2;durP2;ratioP2
39018;SDS011;24786;51.984;5.872;2023-01-19T00:00:33;25.80;;;15.10;;
39018;SDS011;24786;51.984;5.872;2023-01-19T00:02:59;22.63;;;14.75;;
39018;SDS011;24786;51.984;5.872;2023-01-19T00:05:25;26.15;;;14.95;;
39018;SDS011;24786;51.984;5.872;2023-01-19T00:07:50;28.65;;;15.52;;
39018;SDS011;24786;51.984;5.872;2023-01-19T00:10:16;24.73;;;15.70;;
39018;SDS011;24786;51.984;5.872;2023-01-19T00:12:42;24.58;;;14.82;;
39018;SDS011;24786;51.984;5.872;2023-01-19T00:15:07;24.33;;;14.85;;
39018;SDS011;24786;51.984;5.872;2023-01-19T00:17:33;26.58;;;14.45;;
39018;SDS011;24786;51.984;5.872;2023-01-19T00:19:59;28.88;;;15.80;;
39018;SDS011;24786;51.984;5.872;2023-01-19T00:22:24;23.10;;;15.20;;
39018;SDS011;24786;51.984;5.872;2023-01-19T00:24:50;28.65;;;15.82;;
39018;SDS011;24786;51.984;5.872;2023-01-19T00:27:15;25.30;;;14.15;;
39018;SDS011;24786;51.984;5.872;2023-01-19T00:29:41;30.67;;;15.48;;
39018;SDS011;24786;51.984;5.872;2023-01-19T00:32:07;23.77;;;14.27;;
39018;SDS011;24786;51.984;5.872;2023-01-19T00:34:32;28.23;;;14.95;;
39018;SDS011;24786;51.984;5.872;2023-01-19T00:37:04;27.33;;;15.88;;
39018;SDS011;24786;51.984;5.872;2023-01-19T00:39:31;25.48;;;15.70;;
39018;SDS011;24786;51.984;5.872;2023-01-19T00:41:56;26.60;;;16.58;;
39018;SDS011;24786;51.984;5.872;2023-01-19T00:44:40;25.08;;;15.73;;
39018;SDS011;24786;51.984;5.872;2023-01-19T00:47:06;29.40;;;16.73;;
39018;SDS011;24786;51.984;5.872;2023-01-19T00:49:32;27.65;;;16.27;;
39018;SDS011;24786;51.984;5.872;2023-01-19T00:51:57;29.42;;;16.73;;
39018;SDS011;24786;51.984;5.872;2023-01-19T00:54:23;28.92;;;17.08;;
39018;SDS011;24786;51.984;5.872;2023-01-19T00:56:48;28.60;;;16.45;;
39018;SDS011;24786;51.984;5.872;2023-01-19T00:59:14;26.75;;;15.88;;
39018;SDS011;24786;51.984;5.872;2023-01-19T01:01:39;26.45;;;16.38;;
39018;SDS011;24786;51.984;5.872;2023-01-19T01:04:05;32.33;;;17.58;;
39018;SDS011;24786;51.984;5.872;2023-01-19T01:06:31;28.33;;;16.00;;
39018;SDS011;24786;51.984;5.872;2023-01-19T01:08:56;29.63;;;17.02;;
39018;SDS011;24786;51.984;5.872;2023-01-19T01:11:22;27.95;;;16.23;;
39018;SDS011;24786;51.984;5.872;2023-01-19T01:13:47;30.05;;;16.33;;
39018;SDS011;24786;51.984;5.872;2023-01-19T01:16:14;24.67;;;15.35;;
39018;SDS011;24786;51.984;5.872;2023-01-19T01:18:40;27.25;;;15.65;;
39018;SDS011;24786;51.984;5.872;2023-01-19T01:21:06;26.10;;;15.98;;
39018;SDS011;24786;51.984;5.872;2023-01-19T01:23:33;25.73;;;14.90;;
39018;SDS011;24786;51.984;5.872;2023-01-19T01:25:59;26.63;;;15.00;;
39018;SDS011;24786;51.984;5.872;2023-01-19T01:28:26;31.70;;;14.90;;
39018;SDS011;24786;51.984;5.872;2023-01-19T01:30:52;26.08;;;16.88;;
39018;SDS011;24786;51.984;5.872;2023-01-19T01:33:21;22.45;;;13.07;;
39018;SDS011;24786;51.984;5.872;2023-01-19T01:35:49;22.83;;;14.65;;
39018;SDS011;24786;51.984;5.872;2023-01-19T01:38:16;17.55;;;10.65;;
39018;SDS011;24786;51.984;5.872;2023-01-19T01:40:42;25.05;;;14.60;;
39018;SDS011;24786;51.984;5.872;2023-01-19T01:43:10;27.42;;;14.57;;
39018;SDS011;24786;51.984;5.872;2023-01-19T01:45:41;21.02;;;14.05;;
39018;SDS011;24786;51.984;5.872;2023-01-19T01:50:52;24.15;;;13.52;;
39018;SDS011;24786;51.984;5.872;2023-01-19T01:53:54;22.48;;;13.93;;
39018;SDS011;24786;51.984;5.872;2023-01-19T01:56:23;24.27;;;13.10;;
39018;SDS011;24786;51.984;5.872;2023-01-19T01:58:50;26.77;;;13.43;;
39018;SDS011;24786;51.984;5.872;2023-01-19T02:01:16;21.77;;;13.85;;
39018;SDS011;24786;51.984;5.872;2023-01-19T02:04:00;22.17;;;12.82;;
39018;SDS011;24786;51.984;5.872;2023-01-19T02:06:26;20.90;;;12.90;;
39018;SDS011;24786;51.984;5.872;2023-01-19T02:08:53;27.15;;;14.15;;
39018;SDS011;24786;51.984;5.872;2023-01-19T02:11:42;33.35;;;14.77;;
39018;SDS011;24786;51.984;5.872;2023-01-19T02:14:26;20.23;;;13.15;;
39018;SDS011;24786;51.984;5.872;2023-01-19T02:16:52;24.75;;;15.13;;
39018;SDS011;24786;51.984;5.872;2023-01-19T02:19:22;24.48;;;14.50;;
39018;SDS011;24786;51.984;5.872;2023-01-19T02:21:53;19.10;;;12.77;;
39018;SDS011;24786;51.984;5.872;2023-01-19T02:24:35;21.63;;;13.98;;
39018;SDS011;24786;51.984;5.872;2023-01-19T02:27:01;20.48;;;13.30;;
39018;SDS011;24786;51.984;5.872;2023-01-19T02:29:28;21.45;;;13.32;;
39018;SDS011;24786;51.984;5.872;2023-01-19T02:31:55;21.35;;;14.15;;
39018;SDS011;24786;51.984;5.872;2023-01-19T02:34:21;22.48;;;13.77;;
39018;SDS011;24786;51.984;5.872;2023-01-19T02:39:15;21.48;;;13.25;;
39018;SDS011;24786;51.984;5.872;2023-01-19T02:41:45;21.02;;;13.60;;
39018;SDS011;24786;51.984;5.872;2023-01-19T02:44:16;22.42;;;14.48;;
39018;SDS011;24786;51.984;5.872;2023-01-19T02:46:43;23.05;;;13.65;;
39018;SDS011;24786;51.984;5.872;2023-01-19T02:49:09;21.13;;;13.35;;
39018;SDS011;24786;51.984;5.872;2023-01-19T02:51:35;19.88;;;13.07;;
39018;SDS011;24786;51.984;5.872;2023-01-19T03:07:29;14.05;;;9.32;;
39018;SDS011;24786;51.984;5.872;2023-01-19T03:15:58;14.38;;;9.68;;
39018;SDS011;24786;51.984;5.872;2023-01-19T03:18:30;12.27;;;8.80;;
39018;SDS011;24786;51.984;5.872;2023-01-19T03:20:58;11.43;;;9.23;;
39018;SDS011;24786;51.984;5.872;2023-01-19T03:23:29;12.90;;;9.00;;
39018;SDS011;24786;51.984;5.872;2023-01-19T03:25:56;12.38;;;8.45;;
39018;SDS011;24786;51.984;5.872;2023-01-19T03:28:24;12.20;;;8.07;;
39018;SDS011;24786;51.984;5.872;2023-01-19T03:31:00;8.50;;;6.68;;
39018;SDS011;24786;51.984;5.872;2023-01-19T03:33:31;10.35;;;7.28;;
39018;SDS011;24786;51.984;5.872;2023-01-19T03:36:02;7.85;;;5.97;;
39018;SDS011;24786;51.984;5.872;2023-01-19T03:38:38;7.28;;;5.18;;
39018;SDS011;24786;51.984;5.872;2023-01-19T03:41:10;6.35;;;4.35;;
39018;SDS011;24786;51.984;5.872;2023-01-19T03:43:40;5.10;;;3.92;;
39018;SDS011;24786;51.984;5.872;2023-01-19T03:46:07;5.45;;;2.95;;
39018;SDS011;24786;51.984;5.872;2023-01-19T03:48:41;3.58;;;2.63;;
39018;SDS011;24786;51.984;5.872;2023-01-19T03:51:07;4.18;;;2.15;;
39018;SDS011;24786;51.984;5.872;2023-01-19T03:53:34;3.40;;;2.15;;
39018;SDS011;24786;51.984;5.872;2023-01-19T03:56:00;3.55;;;2.08;;
39018;SDS011;24786;51.984;5.872;2023-01-19T03:58:25;4.05;;;2.00;;
39018;SDS011;24786;51.984;5.872;2023-01-19T04:00:52;4.15;;;2.85;;
39018;SDS011;24786;51.984;5.872;2023-01-19T04:03:17;2.35;;;1.48;;
39018;SDS011;24786;51.984;5.872;2023-01-19T04:05:43;5.35;;;1.60;;
39018;SDS011;24786;51.984;5.872;2023-01-19T04:08:09;2.08;;;1.27;;
39018;SDS011;24786;51.984;5.872;2023-01-19T04:10:36;1.73;;;1.30;;
39018;SDS011;24786;51.984;5.872;2023-01-19T04:13:02;1.92;;;1.20;;
39018;SDS011;24786;51.984;5.872;2023-01-19T04:15:28;4.38;;;1.05;;
39018;SDS011;24786;51.984;5.872;2023-01-19T04:18:00;1.08;;;1.08;;
39018;SDS011;24786;51.984;5.872;2023-01-19T04:20:26;0.73;;;0.70;;
39018;SDS011;24786;51.984;5.872;2023-01-19T04:22:53;1.90;;;0.90;;
39018;SDS011;24786;51.984;5.872;2023-01-19T04:25:20;0.80;;;0.77;;
39018;SDS011;24786;51.984;5.872;2023-01-19T04:27:45;0.80;;;0.80;;
39018;SDS011;24786;51.984;5.872;2023-01-19T04:30:11;1.55;;;0.85;;
39018;SDS011;24786;51.984;5.872;2023-01-19T04:32:37;1.52;;;0.80;;
39018;SDS011;24786;51.984;5.872;2023-01-19T04:35:03;1.42;;;1.10;;
39018;SDS011;24786;51.984;5.872;2023-01-19T04:37:28;2.40;;;1.20;;
39018;SDS011;24786;51.984;5.872;2023-01-19T04:39:54;1.38;;;1.15;;
39018;SDS011;24786;51.984;5.872;2023-01-19T04:42:20;2.15;;;1.25;;
39018;SDS011;24786;51.984;5.872;2023-01-19T04:44:46;3.92;;;1.35;;
39018;SDS011;24786;51.984;5.872;2023-01-19T04:47:11;1.98;;;1.20;;
39018;SDS011;24786;51.984;5.872;2023-01-19T04:49:37;1.98;;;1.05;;
39018;SDS011;24786;51.984;5.872;2023-01-19T04:52:05;2.00;;;1.10;;
39018;SDS011;24786;51.984;5.872;2023-01-19T04:54:31;1.35;;;1.10;;
39018;SDS011;24786;51.984;5.872;2023-01-19T04:56:57;3.08;;;1.52;;
39018;SDS011;24786;51.984;5.872;2023-01-19T04:59:22;1.80;;;1.60;;
39018;SDS011;24786;51.984;5.872;2023-01-19T05:01:48;2.83;;;1.90;;
39018;SDS011;24786;51.984;5.872;2023-01-19T05:04:14;2.60;;;1.83;;
39018;SDS011;24786;51.984;5.872;2023-01-19T05:06:39;5.10;;;1.75;;
39018;SDS011;24786;51.984;5.872;2023-01-19T05:09:05;6.15;;;2.53;;
39018;SDS011;24786;51.984;5.872;2023-01-19T05:11:32;3.63;;;2.00;;
39018;SDS011;24786;51.984;5.872;2023-01-19T05:14:01;3.38;;;1.77;;
39018;SDS011;24786;51.984;5.872;2023-01-19T05:16:26;4.63;;;1.95;;
39018;SDS011;24786;51.984;5.872;2023-01-19T05:18:52;5.53;;;2.55;;
39018;SDS011;24786;51.984;5.872;2023-01-19T05:21:17;3.67;;;2.33;;
39018;SDS011;24786;51.984;5.872;2023-01-19T05:23:44;9.30;;;2.22;;
39018;SDS011;24786;51.984;5.872;2023-01-19T05:26:09;4.15;;;1.70;;
39018;SDS011;24786;51.984;5.872;2023-01-19T05:28:35;3.80;;;2.00;;
39018;SDS011;24786;51.984;5.872;2023-01-19T05:31:01;3.03;;;1.88;;
39018;SDS011;24786;51.984;5.872;2023-01-19T05:33:26;4.05;;;2.15;;
39018;SDS011;24786;51.984;5.872;2023-01-19T05:35:52;7.43;;;2.25;;
39018;SDS011;24786;51.984;5.872;2023-01-19T05:38:18;6.72;;;2.08;;
39018;SDS011;24786;51.984;5.872;2023-01-19T05:40:44;6.75;;;2.70;;
39018;SDS011;24786;51.984;5.872;2023-01-19T05:43:11;3.22;;;1.80;;
39018;SDS011;24786;51.984;5.872;2023-01-19T05:45:36;5.50;;;1.95;;
39018;SDS011;24786;51.984;5.872;2023-01-19T05:48:03;8.25;;;1.75;;
39018;SDS011;24786;51.984;5.872;2023-01-19T05:50:29;2.78;;;1.20;;
39018;SDS011;24786;51.984;5.872;2023-01-19T05:52:55;2.33;;;1.50;;
39018;SDS011;24786;51.984;5.872;2023-01-19T05:55:21;3.20;;;1.58;;
39018;SDS011;24786;51.984;5.872;2023-01-19T05:57:47;3.97;;;1.40;;
39018;SDS011;24786;51.984;5.872;2023-01-19T06:00:13;7.05;;;1.50;;
39018;SDS011;24786;51.984;5.872;2023-01-19T06:02:39;2.90;;;1.48;;
39018;SDS011;24786;51.984;5.872;2023-01-19T06:05:05;5.07;;;1.42;;
39018;SDS011;24786;51.984;5.872;2023-01-19T06:07:30;3.08;;;1.60;;
39018;SDS011;24786;51.984;5.872;2023-01-19T06:09:56;5.35;;;1.70;;
39018;SDS011;24786;51.984;5.872;2023-01-19T06:12:22;4.65;;;1.40;;
39018;SDS011;24786;51.984;5.872;2023-01-19T06:14:48;2.30;;;1.55;;
39018;SDS011;24786;51.984;5.872;2023-01-19T06:17:14;7.97;;;2.05;;
39018;SDS011;24786;51.984;5.872;2023-01-19T06:19:39;8.20;;;1.80;;
39018;SDS011;24786;51.984;5.872;2023-01-19T06:22:05;4.25;;;1.65;;
39018;SDS011;24786;51.984;5.872;2023-01-19T06:24:31;6.13;;;2.22;;
39018;SDS011;24786;51.984;5.872;2023-01-19T06:26:57;7.30;;;2.30;;
39018;SDS011;24786;51.984;5.872;2023-01-19T06:29:27;5.15;;;2.70;;
39018;SDS011;24786;51.984;5.872;2023-01-19T06:31:53;7.15;;;2.20;;
39018;SDS011;24786;51.984;5.872;2023-01-19T06:34:19;6.97;;;2.00;;
39018;SDS011;24786;51.984;5.872;2023-01-19T06:36:45;3.97;;;1.77;;
39018;SDS011;24786;51.984;5.872;2023-01-19T06:39:11;10.70;;;1.98;;
39018;SDS011;24786;51.984;5.872;2023-01-19T06:41:37;6.40;;;1.58;;
39018;SDS011;24786;51.984;5.872;2023-01-19T06:44:03;9.82;;;2.20;;
39018;SDS011;24786;51.984;5.872;2023-01-19T06:46:29;14.18;;;1.98;;
39018;SDS011;24786;51.984;5.872;2023-01-19T06:48:55;13.70;;;2.33;;
39018;SDS011;24786;51.984;5.872;2023-01-19T06:51:21;7.13;;;2.10;;
39018;SDS011;24786;51.984;5.872;2023-01-19T06:53:47;10.85;;;2.33;;
39018;SDS011;24786;51.984;5.872;2023-01-19T06:56:12;13.85;;;2.40;;
39018;SDS011;24786;51.984;5.872;2023-01-19T06:58:38;12.40;;;2.92;;
39018;SDS011;24786;51.984;5.872;2023-01-19T07:01:06;17.15;;;3.88;;
39018;SDS011;24786;51.984;5.872;2023-01-19T07:03:32;7.80;;;2.45;;
39018;SDS011;24786;51.984;5.872;2023-01-19T07:05:58;11.77;;;2.42;;
39018;SDS011;24786;51.984;5.872;2023-01-19T07:08:26;9.75;;;2.45;;
39018;SDS011;24786;51.984;5.872;2023-01-19T07:10:57;3.70;;;2.25;;
39018;SDS011;24786;51.984;5.872;2023-01-19T07:13:24;10.32;;;2.60;;
39018;SDS011;24786;51.984;5.872;2023-01-19T07:15:49;8.85;;;2.60;;
39018;SDS011;24786;51.984;5.872;2023-01-19T07:18:15;11.13;;;3.22;;
39018;SDS011;24786;51.984;5.872;2023-01-19T07:20:40;11.75;;;2.72;;
39018;SDS011;24786;51.984;5.872;2023-01-19T07:23:08;9.50;;;2.60;;
39018;SDS011;24786;51.984;5.872;2023-01-19T07:25:34;14.93;;;3.70;;
39018;SDS011;24786;51.984;5.872;2023-01-19T07:28:00;10.15;;;3.17;;
39018;SDS011;24786;51.984;5.872;2023-01-19T07:30:26;7.63;;;3.20;;
39018;SDS011;24786;51.984;5.872;2023-01-19T07:32:55;7.90;;;2.97;;
39018;SDS011;24786;51.984;5.872;2023-01-19T07:35:50;11.10;;;3.22;;
39018;SDS011;24786;51.984;5.872;2023-01-19T07:38:19;9.52;;;3.65;;
39018;SDS011;24786;51.984;5.872;2023-01-19T07:40:51;8.05;;;3.38;;
39018;SDS011;24786;51.984;5.872;2023-01-19T07:43:25;12.07;;;4.53;;
39018;SDS011;24786;51.984;5.872;2023-01-19T08:00:02;11.85;;;4.40;;
39018;SDS011;24786;51.984;5.872;2023-01-19T08:02:36;7.70;;;4.10;;
39018;SDS011;24786;51.984;5.872;2023-01-19T08:09:29;13.02;;;4.65;;
39018;SDS011;24786;51.984;5.872;2023-01-19T08:11:55;10.32;;;4.25;;
39018;SDS011;24786;51.984;5.872;2023-01-19T08:14:21;5.97;;;4.60;;
39018;SDS011;24786;51.984;5.872;2023-01-19T08:16:47;14.98;;;4.57;;
39018;SDS011;24786;51.984;5.872;2023-01-19T08:19:13;11.30;;;4.53;;
39018;SDS011;24786;51.984;5.872;2023-01-19T08:21:39;16.90;;;5.13;;
39018;SDS011;24786;51.984;5.872;2023-01-19T08:24:05;10.35;;;5.03;;
39018;SDS011;24786;51.984;5.872;2023-01-19T08:26:31;18.25;;;4.90;;
39018;SDS011;24786;51.984;5.872;2023-01-19T08:29:00;15.50;;;5.20;;
39018;SDS011;24786;51.984;5.872;2023-01-19T08:31:27;10.50;;;5.07;;
39018;SDS011;24786;51.984;5.872;2023-01-19T08:33:53;17.58;;;6.05;;
39018;SDS011;24786;51.984;5.872;2023-01-19T08:36:19;16.08;;;6.07;;
39018;SDS011;24786;51.984;5.872;2023-01-19T08:38:46;14.38;;;6.97;;
39018;SDS011;24786;51.984;5.872;2023-01-19T08:41:12;15.35;;;6.55;;
39018;SDS011;24786;51.984;5.872;2023-01-19T08:43:40;19.30;;;7.43;;
39018;SDS011;24786;51.984;5.872;2023-01-19T08:46:05;14.93;;;7.90;;
39018;SDS011;24786;51.984;5.872;2023-01-19T08:48:31;16.80;;;6.88;;
39018;SDS011;24786;51.984;5.872;2023-01-19T08:50:57;12.65;;;7.10;;
39018;SDS011;24786;51.984;5.872;2023-01-19T08:53:24;12.25;;;6.85;;
39018;SDS011;24786;51.984;5.872;2023-01-19T08:55:52;22.77;;;7.93;;
39018;SDS011;24786;51.984;5.872;2023-01-19T08:58:21;14.85;;;8.10;;
39018;SDS011;24786;51.984;5.872;2023-01-19T09:00:47;19.20;;;8.70;;
39018;SDS011;24786;51.984;5.872;2023-01-19T09:03:16;21.13;;;9.05;;
39018;SDS011;24786;51.984;5.872;2023-01-19T09:05:42;22.17;;;8.93;;
39018;SDS011;24786;51.984;5.872;2023-01-19T09:08:08;16.48;;;7.97;;
39018;SDS011;24786;51.984;5.872;2023-01-19T09:10:36;15.75;;;8.68;;
39018;SDS011;24786;51.984;5.872;2023-01-19T09:13:06;16.60;;;8.07;;
39018;SDS011;24786;51.984;5.872;2023-01-19T09:15:34;17.50;;;7.80;;
39018;SDS011;24786;51.984;5.872;2023-01-19T09:18:01;16.50;;;8.30;;
39018;SDS011;24786;51.984;5.872;2023-01-19T09:20:28;18.30;;;9.38;;
39018;SDS011;24786;51.984;5.872;2023-01-19T09:22:55;19.30;;;8.35;;
39018;SDS011;24786;51.984;5.872;2023-01-19T09:25:21;19.65;;;8.18;;
39018;SDS011;24786;51.984;5.872;2023-01-19T09:27:47;23.25;;;8.60;;
39018;SDS011;24786;51.984;5.872;2023-01-19T09:30:12;18.30;;;8.15;;
39018;SDS011;24786;51.984;5.872;2023-01-19T09:32:38;21.35;;;9.80;;
39018;SDS011;24786;51.984;5.872;2023-01-19T09:35:04;16.60;;;8.50;;
39018;SDS011;24786;51.984;5.872;2023-01-19T09:37:31;27.45;;;9.18;;
39018;SDS011;24786;51.984;5.872;2023-01-19T09:39:56;16.15;;;7.60;;
39018;SDS011;24786;51.984;5.872;2023-01-19T09:42:25;22.85;;;7.78;;
39018;SDS011;24786;51.984;5.872;2023-01-19T09:45:17;21.77;;;6.80;;
39018;SDS011;24786;51.984;5.872;2023-01-19T09:47:46;22.25;;;6.38;;
39018;SDS011;24786;51.984;5.872;2023-01-19T09:50:18;15.43;;;5.65;;
39018;SDS011;24786;51.984;5.872;2023-01-19T09:52:53;19.00;;;5.28;;
39018;SDS011;24786;51.984;5.872;2023-01-19T09:55:25;18.00;;;5.20;;
39018;SDS011;24786;51.984;5.872;2023-01-19T09:57:51;19.17;;;6.07;;
39018;SDS011;24786;51.984;5.872;2023-01-19T10:00:18;14.88;;;5.28;;
39018;SDS011;24786;51.984;5.872;2023-01-19T10:02:47;13.93;;;4.47;;
39018;SDS011;24786;51.984;5.872;2023-01-19T10:05:41;12.15;;;3.72;;
39018;SDS011;24786;51.984;5.872;2023-01-19T10:11:24;10.38;;;4.15;;
39018;SDS011;24786;51.984;5.872;2023-01-19T10:14:00;9.63;;;3.22;;
39018;SDS011;24786;51.984;5.872;2023-01-19T10:16:59;9.88;;;3.17;;
39018;SDS011;24786;51.984;5.872;2023-01-19T10:19:36;13.80;;;3.30;;
39018;SDS011;24786;51.984;5.872;2023-01-19T10:22:22;16.02;;;3.38;;
39018;SDS011;24786;51.984;5.872;2023-01-19T10:24:51;10.88;;;3.95;;
39018;SDS011;24786;51.984;5.872;2023-01-19T10:27:23;8.82;;;2.53;;
39018;SDS011;24786;51.984;5.872;2023-01-19T10:29:54;12.60;;;2.65;;
39018;SDS011;24786;51.984;5.872;2023-01-19T10:32:24;19.50;;;3.35;;
39018;SDS011;24786;51.984;5.872;2023-01-19T10:34:52;10.77;;;3.05;;
39018;SDS011;24786;51.984;5.872;2023-01-19T10:39:53;8.85;;;2.47;;
39018;SDS011;24786;51.984;5.872;2023-01-19T10:42:21;12.13;;;2.92;;
39018;SDS011;24786;51.984;5.872;2023-01-19T10:44:47;13.55;;;2.00;;
39018;SDS011;24786;51.984;5.872;2023-01-19T10:47:15;12.60;;;2.90;;
39018;SDS011;24786;51.984;5.872;2023-01-19T10:49:42;13.45;;;4.05;;
39018;SDS011;24786;51.984;5.872;2023-01-19T10:55:04;15.05;;;6.68;;
39018;SDS011;24786;51.984;5.872;2023-01-19T10:57:32;18.42;;;5.80;;
39018;SDS011;24786;51.984;5.872;2023-01-19T11:00:02;14.23;;;6.20;;
39018;SDS011;24786;51.984;5.872;2023-01-19T11:02:52;21.92;;;6.75;;
39018;SDS011;24786;51.984;5.872;2023-01-19T11:07:48;15.95;;;6.18;;
39018;SDS011;24786;51.984;5.872;2023-01-19T11:12:40;19.85;;;8.15;;
39018;SDS011;24786;51.984;5.872;2023-01-19T11:15:20;17.67;;;8.10;;
39018;SDS011;24786;51.984;5.872;2023-01-19T11:17:47;17.67;;;7.75;;
39018;SDS011;24786;51.984;5.872;2023-01-19T11:20:23;20.83;;;7.70;;
39018;SDS011;24786;51.984;5.872;2023-01-19T11:25:48;21.60;;;8.23;;
39018;SDS011;24786;51.984;5.872;2023-01-19T11:30:54;15.32;;;6.30;;
39018;SDS011;24786;51.984;5.872;2023-01-19T11:33:34;14.95;;;7.53;;
39018;SDS011;24786;51.984;5.872;2023-01-19T11:36:03;17.77;;;7.40;;
39018;SDS011;24786;51.984;5.872;2023-01-19T11:38:30;22.20;;;7.73;;
39018;SDS011;24786;51.984;5.872;2023-01-19T11:40:56;18.83;;;7.88;;
39018;SDS011;24786;51.984;5.872;2023-01-19T11:43:26;19.23;;;6.57;;
39018;SDS011;24786;51.984;5.872;2023-01-19T11:45:53;13.27;;;6.85;;
39018;SDS011;24786;51.984;5.872;2023-01-19T11:48:25;14.80;;;6.97;;
39018;SDS011;24786;51.984;5.872;2023-01-19T11:50:58;20.08;;;8.45;;
39018;SDS011;24786;51.984;5.872;2023-01-19T11:53:27;15.18;;;8.07;;
39018;SDS011;24786;51.984;5.872;2023-01-19T11:55:59;20.20;;;11.07;;
39018;SDS011;24786;51.984;5.872;2023-01-19T11:58:39;19.75;;;9.52;;
39018;SDS011;24786;51.984;5.872;2023-01-19T12:04:03;18.92;;;10.57;;
39018;SDS011;24786;51.984;5.872;2023-01-19T12:06:38;18.40;;;10.52;;
39018;SDS011;24786;51.984;5.872;2023-01-19T12:11:38;18.27;;;9.63;;
39018;SDS011;24786;51.984;5.872;2023-01-19T12:14:14;15.45;;;9.23;;
39018;SDS011;24786;51.984;5.872;2023-01-19T12:16:52;23.42;;;9.38;;
39018;SDS011;24786;51.984;5.872;2023-01-19T12:19:26;21.02;;;9.50;;
39018;SDS011;24786;51.984;5.872;2023-01-19T12:22:04;15.75;;;8.50;;
39018;SDS011;24786;51.984;5.872;2023-01-19T12:24:35;15.30;;;7.93;;
39018;SDS011;24786;51.984;5.872;2023-01-19T12:27:51;21.55;;;9.55;;
39018;SDS011;24786;51.984;5.872;2023-01-19T12:30:08;13.05;;;7.35;;
39018;SDS011;24786;51.984;5.872;2023-01-19T12:33:18;18.27;;;9.30;;
39018;SDS011;24786;51.984;5.872;2023-01-19T12:49:28;18.08;;;8.52;;
39018;SDS011;24786;51.984;5.872;2023-01-19T12:52:17;17.23;;;7.00;;
39018;SDS011;24786;51.984;5.872;2023-01-19T12:57:32;10.10;;;6.15;;
39018;SDS011;24786;51.984;5.872;2023-01-19T13:02:46;14.30;;;6.50;;
39018;SDS011;24786;51.984;5.872;2023-01-19T13:13:30;14.30;;;6.20;;
39018;SDS011;24786;51.984;5.872;2023-01-19T13:24:07;10.00;;;4.40;;
39018;SDS011;24786;51.984;5.872;2023-01-19T13:26:37;9.33;;;3.90;;
39018;SDS011;24786;51.984;5.872;2023-01-19T13:29:09;10.27;;;4.07;;
39018;SDS011;24786;51.984;5.872;2023-01-19T13:31:41;6.80;;;3.55;;
39018;SDS011;24786;51.984;5.872;2023-01-19T13:34:18;9.77;;;3.42;;
39018;SDS011;24786;51.984;5.872;2023-01-19T13:36:51;4.75;;;2.88;;
39018;SDS011;24786;51.984;5.872;2023-01-19T13:39:26;7.50;;;2.60;;
39018;SDS011;24786;51.984;5.872;2023-01-19T13:41:54;7.57;;;2.40;;
39018;SDS011;24786;51.984;5.872;2023-01-19T13:44:39;5.18;;;2.05;;
39018;SDS011;24786;51.984;5.872;2023-01-19T13:47:20;6.88;;;1.73;;
39018;SDS011;24786;51.984;5.872;2023-01-19T13:49:50;5.28;;;1.70;;
39018;SDS011;24786;51.984;5.872;2023-01-19T13:52:23;6.45;;;1.52;;
39018;SDS011;24786;51.984;5.872;2023-01-19T13:57:27;6.60;;;1.52;;
39018;SDS011;24786;51.984;5.872;2023-01-19T14:02:51;9.32;;;1.60;;
39018;SDS011;24786;51.984;5.872;2023-01-19T14:05:35;3.33;;;1.45;;
39018;SDS011;24786;51.984;5.872;2023-01-19T14:10:27;1.38;;;0.73;;
39018;SDS011;24786;51.984;5.872;2023-01-19T14:13:05;8.52;;;1.45;;
39018;SDS011;24786;51.984;5.872;2023-01-19T14:20:40;2.58;;;0.98;;
39018;SDS011;24786;51.984;5.872;2023-01-19T14:29:33;5.43;;;1.17;;
39018;SDS011;24786;51.984;5.872;2023-01-19T14:36:57;2.83;;;0.90;;
39018;SDS011;24786;51.984;5.872;2023-01-19T14:39:33;3.58;;;1.23;;
39018;SDS011;24786;51.984;5.872;2023-01-19T14:42:10;1.55;;;0.70;;
39018;SDS011;24786;51.984;5.872;2023-01-19T14:44:43;3.60;;;1.27;;
39018;SDS011;24786;51.984;5.872;2023-01-19T14:47:19;4.57;;;1.92;;
39018;SDS011;24786;51.984;5.872;2023-01-19T14:49:51;6.05;;;1.42;;
39018;SDS011;24786;51.984;5.872;2023-01-19T14:52:21;2.42;;;1.10;;
39018;SDS011;24786;51.984;5.872;2023-01-19T14:54:50;4.55;;;1.17;;
39018;SDS011;24786;51.984;5.872;2023-01-19T14:57:17;3.72;;;1.08;;
39018;SDS011;24786;51.984;5.872;2023-01-19T14:59:43;4.78;;;1.48;;
39018;SDS011;24786;51.984;5.872;2023-01-19T15:02:12;3.42;;;1.13;;
39018;SDS011;24786;51.984;5.872;2023-01-19T15:04:38;4.90;;;1.40;;
39018;SDS011;24786;51.984;5.872;2023-01-19T15:07:03;4.82;;;1.33;;
39018;SDS011;24786;51.984;5.872;2023-01-19T15:09:29;3.22;;;1.10;;
39018;SDS011;24786;51.984;5.872;2023-01-19T15:11:55;3.22;;;1.38;;
39018;SDS011;24786;51.984;5.872;2023-01-19T15:14:21;5.47;;;1.30;;
39018;SDS011;24786;51.984;5.872;2023-01-19T15:16:46;2.83;;;0.98;;
39018;SDS011;24786;51.984;5.872;2023-01-19T15:19:13;3.13;;;1.10;;
39018;SDS011;24786;51.984;5.872;2023-01-19T15:21:40;3.95;;;1.40;;
39018;SDS011;24786;51.984;5.872;2023-01-19T15:24:09;3.03;;;1.17;;
39018;SDS011;24786;51.984;5.872;2023-01-19T15:26:40;4.95;;;1.25;;
39018;SDS011;24786;51.984;5.872;2023-01-19T15:29:22;2.28;;;1.00;;
39018;SDS011;24786;51.984;5.872;2023-01-19T15:31:50;2.80;;;1.20;;
39018;SDS011;24786;51.984;5.872;2023-01-19T15:34:16;5.07;;;1.23;;
39018;SDS011;24786;51.984;5.872;2023-01-19T15:36:42;4.82;;;2.58;;
39018;SDS011;24786;51.984;5.872;2023-01-19T15:39:08;2.63;;;1.30;;
39018;SDS011;24786;51.984;5.872;2023-01-19T15:41:34;3.40;;;2.25;;
39018;SDS011;24786;51.984;5.872;2023-01-19T15:44:02;2.63;;;2.03;;
39018;SDS011;24786;51.984;5.872;2023-01-19T15:46:30;4.25;;;1.92;;
39018;SDS011;24786;51.984;5.872;2023-01-19T15:48:55;4.00;;;2.25;;
39018;SDS011;24786;51.984;5.872;2023-01-19T15:51:22;5.00;;;2.25;;
39018;SDS011;24786;51.984;5.872;2023-01-19T15:53:49;7.18;;;2.60;;
39018;SDS011;24786;51.984;5.872;2023-01-19T15:56:17;5.75;;;3.30;;
39018;SDS011;24786;51.984;5.872;2023-01-19T15:59:09;6.60;;;3.50;;
39018;SDS011;24786;51.984;5.872;2023-01-19T16:01:35;8.93;;;4.75;;
39018;SDS011;24786;51.984;5.872;2023-01-19T16:04:01;11.68;;;5.30;;
39018;SDS011;24786;51.984;5.872;2023-01-19T16:06:29;10.73;;;5.28;;
39018;SDS011;24786;51.984;5.872;2023-01-19T16:08:55;20.90;;;7.65;;
39018;SDS011;24786;51.984;5.872;2023-01-19T16:11:25;14.52;;;7.78;;
39018;SDS011;24786;51.984;5.872;2023-01-19T16:13:55;15.38;;;7.95;;
39018;SDS011;24786;51.984;5.872;2023-01-19T16:16:21;18.38;;;10.32;;
39018;SDS011;24786;51.984;5.872;2023-01-19T16:18:48;19.00;;;10.40;;
39018;SDS011;24786;51.984;5.872;2023-01-19T16:21:14;20.08;;;11.88;;
39018;SDS011;24786;51.984;5.872;2023-01-19T16:23:40;24.50;;;13.20;;
39018;SDS011;24786;51.984;5.872;2023-01-19T16:26:06;22.70;;;13.10;;
39018;SDS011;24786;51.984;5.872;2023-01-19T16:28:46;25.27;;;12.75;;
39018;SDS011;24786;51.984;5.872;2023-01-19T16:31:12;24.60;;;12.30;;
39018;SDS011;24786;51.984;5.872;2023-01-19T16:33:39;24.33;;;13.75;;
39018;SDS011;24786;51.984;5.872;2023-01-19T16:36:21;24.70;;;13.52;;
39018;SDS011;24786;51.984;5.872;2023-01-19T16:38:48;26.63;;;14.65;;
39018;SDS011;24786;51.984;5.872;2023-01-19T16:41:15;27.60;;;14.70;;
39018;SDS011;24786;51.984;5.872;2023-01-19T16:43:41;26.00;;;14.82;;
39018;SDS011;24786;51.984;5.872;2023-01-19T16:46:09;28.20;;;15.07;;
39018;SDS011;24786;51.984;5.872;2023-01-19T16:48:43;25.10;;;14.55;;
39018;SDS011;24786;51.984;5.872;2023-01-19T16:51:08;29.80;;;15.23;;
39018;SDS011;24786;51.984;5.872;2023-01-19T16:53:34;32.80;;;15.95;;